createdAt,value
2023-01-12T00:00:28.169Z,24.8
2023-01-12T00:05:35.857Z,24.5
2023-01-12T00:10:10.941Z,24.5
2023-01-12T00:15:17.383Z,24.9
2023-01-12T00:20:40.238Z,25.3
2023-01-12T00:25:47.462Z,25.2
2023-01-12T00:30:54.733Z,24.8
2023-01-12T00:36:16.938Z,24.4
2023-01-12T00:41:44.954Z,24.3
2023-01-12T00:47:07.303Z,24
2023-01-12T00:52:29.205Z,24
2023-01-12T00:57:52.544Z,24.4
2023-01-12T01:03:15.923Z,24.9
2023-01-12T01:08:06.820Z,24.8
2023-01-12T01:12:58.940Z,24.4
2023-01-12T01:18:06.426Z,24.1
2023-01-12T01:23:13.116Z,23.9
2023-01-12T01:28:05.142Z,23.7
2023-01-12T01:33:10.963Z,23.6
2023-01-12T01:38:17.402Z,24
2023-01-12T01:43:40.037Z,24.4
2023-01-12T01:49:02.649Z,24.7
2023-01-12T01:54:09.059Z,24.3
2023-01-12T01:59:31.793Z,23.9
2023-01-12T02:04:43.108Z,23.6
2023-01-12T02:09:34.460Z,23.4
2023-01-12T02:14:57.622Z,23.3
2023-01-12T02:20:18.956Z,23.7
2023-01-12T02:25:41.130Z,24.1
2023-01-12T02:30:48.628Z,24.5
2023-01-12T02:36:10.897Z,24.1
2023-01-12T02:41:35.473Z,23.7
2023-01-12T02:46:58.622Z,23.4
2023-01-12T02:52:19.368Z,23.3
2023-01-12T02:57:41.794Z,23.2
2023-01-12T03:03:05.187Z,23.6
2023-01-12T03:08:26.923Z,24.1
2023-01-12T03:13:33.711Z,24.3
2023-01-12T03:18:56.849Z,23.9
2023-01-12T03:24:18.910Z,23.6
2023-01-12T03:29:25.315Z,23.3
2023-01-12T03:34:48.387Z,23.1
2023-01-12T03:40:11.053Z,23.1
2023-01-12T03:45:33.667Z,23.5
2023-01-12T03:50:56.406Z,24.1
2023-01-12T03:56:17.937Z,24.3
2023-01-12T04:01:40.403Z,23.9
2023-01-12T04:07:03.764Z,23.4
2023-01-12T04:11:54.518Z,23.2
2023-01-12T04:17:17.621Z,23.1
2023-01-12T04:22:40.581Z,23
2023-01-12T04:27:30.979Z,23.3
2023-01-12T04:32:53.440Z,23.8
2023-01-12T04:38:16.218Z,23.8
2023-01-12T04:43:41.221Z,23.6
2023-01-12T04:49:02.798Z,24
2023-01-12T04:54:25.930Z,24.3
2023-01-12T04:59:48.445Z,23.9
2023-01-12T05:05:14.031Z,23.4
2023-01-12T05:10:36.542Z,23.1
2023-01-12T05:15:58.205Z,22.9
2023-01-12T05:21:24.299Z,22.9
2023-01-12T05:26:31.358Z,23.3
2023-01-12T05:31:55.250Z,23.9
2023-01-12T05:37:02.337Z,24.1
2023-01-12T05:42:09.431Z,23.7
2023-01-12T05:47:31.790Z,23.3
2023-01-12T05:52:53.158Z,23
2023-01-12T05:58:00.687Z,22.8
2023-01-12T06:03:23.841Z,22.8
2023-01-12T06:08:15.773Z,23.2
2023-01-12T06:13:24.507Z,23.7
2023-01-12T06:18:47.335Z,24.1
2023-01-12T06:24:10.110Z,23.7
2023-01-12T06:29:32.613Z,23.3
2023-01-12T06:34:55.210Z,22.9
2023-01-12T06:40:25.547Z,22.8
2023-01-12T06:45:48.585Z,22.8
2023-01-12T06:51:11.135Z,23.1
2023-01-12T06:56:32.940Z,23.7
2023-01-12T07:01:56.391Z,24.1
2023-01-12T07:07:18.759Z,23.6
2023-01-12T07:12:41.987Z,23.3
2023-01-12T07:18:07.737Z,22.9
2023-01-12T07:23:29.970Z,22.8
2023-01-12T07:28:55.092Z,22.8
2023-01-12T07:34:18.009Z,23.1
2023-01-12T07:39:42.193Z,23.8
2023-01-12T07:45:05.243Z,23.9
2023-01-12T07:50:29.785Z,23.5
2023-01-12T07:55:52.307Z,23.1
2023-01-12T08:01:15.134Z,22.8
2023-01-12T08:06:41.194Z,22.7
2023-01-12T08:12:03.623Z,22.6
2023-01-12T08:17:26.117Z,22.4
2023-01-12T08:22:48.769Z,22.3
2023-01-12T08:28:13.340Z,22.3
2023-01-12T08:33:35.878Z,22.3
2023-01-12T08:39:16.767Z,22.7
2023-01-12T08:44:41.592Z,23
2023-01-12T08:50:07.721Z,22.6
2023-01-12T08:55:30.573Z,22.4
2023-01-12T09:00:37.977Z,22.3
2023-01-12T09:05:46.265Z,22.1
2023-01-12T09:11:09.352Z,22
2023-01-12T09:16:46.537Z,22
2023-01-12T09:22:09.730Z,21.9
2023-01-12T09:27:35.011Z,22.2
2023-01-12T09:33:06.624Z,22.7
2023-01-12T09:38:29.746Z,22.6
2023-01-12T09:43:44.749Z,22.3
2023-01-12T09:49:08.063Z,22.1
2023-01-12T09:54:39.883Z,22
2023-01-12T10:00:14.787Z,21.8
2023-01-12T10:05:55.664Z,21.8
2023-01-12T10:11:18.836Z,21.6
2023-01-12T10:16:26.264Z,21.9
2023-01-12T10:22:08.355Z,22.4
2023-01-12T10:27:31.027Z,22.4
2023-01-12T10:32:58.642Z,22.2
2023-01-12T10:38:20.920Z,21.9
2023-01-12T10:43:53.395Z,21.8
2023-01-12T10:49:16.280Z,21.6
2023-01-12T10:54:39.381Z,21.6
2023-01-12T11:00:04.857Z,21.5
2023-01-12T11:05:29.708Z,21.6
2023-01-12T11:10:53.957Z,22.1
2023-01-12T11:16:20.654Z,22.4
2023-01-12T11:21:47.243Z,22.1
2023-01-12T11:27:09.418Z,21.8
2023-01-12T11:32:16.977Z,21.7
2023-01-12T11:37:25.229Z,21.6
2023-01-12T11:42:32.782Z,21.4
2023-01-12T11:47:58.229Z,21.4
2023-01-12T11:53:21.406Z,21.4
2023-01-12T11:58:46.497Z,21.8
2023-01-12T12:04:12.550Z,22.3
2023-01-12T12:09:35.885Z,22.1
2023-01-12T12:15:01.750Z,21.9
2023-01-12T12:20:11.263Z,21.6
2023-01-12T12:25:35.702Z,21.6
2023-01-12T12:30:58.187Z,21.4
2023-01-12T12:36:05.433Z,21.4
2023-01-12T12:41:28.775Z,21.9
2023-01-12T12:46:51.858Z,22.3
2023-01-12T12:52:14.002Z,22.1
2023-01-12T12:57:40.176Z,21.8
2023-01-12T13:02:33.110Z,21.6
2023-01-12T13:07:24.865Z,21.5
2023-01-12T13:12:35.177Z,21.4
2023-01-12T13:17:58.329Z,21.4
2023-01-12T13:23:29.234Z,21.9
2023-01-12T13:28:52.598Z,22.3
2023-01-12T13:33:46.516Z,22
2023-01-12T13:39:11.920Z,21.8
2023-01-12T13:44:23.184Z,21.6
2023-01-12T13:49:46.456Z,21.5
2023-01-12T13:55:09.535Z,21.3
2023-01-12T14:00:33.389Z,21.5
2023-01-12T14:05:59.849Z,22
2023-01-12T14:11:36.339Z,22.3
2023-01-12T14:17:22.078Z,22
2023-01-12T14:22:44.524Z,21.7
2023-01-12T14:28:07.290Z,21.6
2023-01-12T14:33:31.028Z,21.4
2023-01-12T14:38:53.354Z,21.3
2023-01-12T14:44:16.154Z,21.6
2023-01-12T14:49:39.469Z,22.3
2023-01-12T14:55:01.834Z,22.2
2023-01-12T15:00:24.930Z,22
2023-01-12T15:05:57.258Z,22.1
2023-01-12T15:11:19.498Z,22.2
2023-01-12T15:16:41.970Z,22.2
2023-01-12T15:22:05.064Z,22.2
2023-01-12T15:27:40.051Z,22.1
2023-01-12T15:33:15.728Z,22
2023-01-12T15:38:38.619Z,21.9
2023-01-12T15:44:00.816Z,21.8
2023-01-12T15:49:23.544Z,21.6
2023-01-12T15:54:46.597Z,21.6
2023-01-12T15:59:52.718Z,21.4
2023-01-12T16:06:21.394Z,21.3
2023-01-12T16:11:46.200Z,21.1
2023-01-12T16:16:53.867Z,21.4
2023-01-12T16:22:16.175Z,22.1
2023-01-12T16:27:41.102Z,22.8
2023-01-12T16:33:04.861Z,23.4
2023-01-12T16:38:27.449Z,24
2023-01-12T16:43:37.223Z,24.5
2023-01-12T16:48:44.645Z,24.8
2023-01-12T16:54:08.066Z,25.1
2023-01-12T16:59:33.411Z,25.4
2023-01-12T17:05:01.922Z,25.9
2023-01-12T17:09:55.931Z,26.3
2023-01-12T17:15:31.304Z,26.4
2023-01-12T17:20:42.501Z,26.6
2023-01-12T17:26:07.640Z,26.8
2023-01-12T17:31:03.112Z,26.9
2023-01-12T17:36:12.405Z,27.1
2023-01-12T17:41:35.652Z,27.2
2023-01-12T17:46:59.919Z,27.3
2023-01-12T17:52:11.205Z,27.6
2023-01-12T18:02:53.961Z,28.1
2023-01-12T18:08:39.438Z,28.4
2023-01-12T18:14:02.955Z,28.4
2023-01-12T18:19:12.766Z,28.6
2023-01-12T18:24:36.258Z,28.7
2023-01-12T18:30:01.037Z,28.9
2023-01-12T18:35:26.612Z,29.2
2023-01-12T18:40:52.199Z,29.4
2023-01-12T18:46:17.661Z,29.6
2023-01-12T18:51:28.401Z,29.8
2023-01-12T18:56:56.127Z,29.9
2023-01-12T19:02:24.375Z,30.1
2023-01-12T19:07:53.014Z,30.1
2023-01-12T19:13:23.897Z,30.1
2023-01-12T19:18:54.087Z,30.1
2023-01-12T19:23:52.930Z,30.1
2023-01-12T19:29:08.419Z,30.1
2023-01-12T19:34:40.879Z,30.3
2023-01-12T19:40:24.821Z,30.4
2023-01-12T19:45:55.117Z,30.5
2023-01-12T19:51:27.784Z,30.7
2023-01-12T19:56:58.198Z,30.8
2023-01-12T20:02:12.362Z,30.9
2023-01-12T20:07:39.937Z,30.8
2023-01-12T20:12:52.813Z,30.7
2023-01-12T20:18:25.524Z,30.5
2023-01-12T20:23:38.826Z,30.3
2023-01-12T20:28:52.943Z,30.1
2023-01-12T20:34:39.286Z,30
2023-01-12T20:40:05.638Z,29.9
2023-01-12T20:45:31.955Z,29.7
2023-01-12T20:50:59.528Z,29.5
2023-01-12T20:56:23.677Z,29.4
2023-01-12T21:01:34.537Z,29.1
2023-01-12T21:06:48.148Z,28.9
2023-01-12T21:12:06.744Z,28.8
2023-01-12T21:17:33.217Z,28.6
2023-01-12T21:22:56.180Z,28.4
2023-01-12T21:28:19.468Z,28.3
2023-01-12T21:33:43.430Z,28.1
2023-01-12T21:39:07.046Z,27.9
2023-01-12T21:44:14.018Z,27.8
2023-01-12T21:49:24.161Z,27.6
2023-01-12T21:54:31.965Z,26.9
2023-01-12T21:59:38.888Z,26.4
2023-01-12T22:05:03.047Z,26.4
2023-01-12T22:10:10.348Z,26.1
2023-01-12T22:15:17.418Z,26.1
2023-01-12T22:20:40.386Z,25.8
2023-01-12T22:26:02.778Z,26.1
2023-01-12T22:31:25.233Z,26.4
2023-01-12T22:36:51.428Z,26.3
2023-01-12T22:41:58.496Z,25.8
2023-01-12T22:47:05.376Z,25.5
2023-01-12T22:52:36.471Z,25.3
2023-01-12T22:57:59.027Z,25.1
2023-01-12T23:03:06.347Z,25
2023-01-12T23:08:13.944Z,24.8
2023-01-12T23:13:20.756Z,24.9
2023-01-12T23:18:43.029Z,25.3
2023-01-12T23:24:05.138Z,25.6
2023-01-12T23:29:11.732Z,25.3
2023-01-12T23:34:33.339Z,24.9
2023-01-12T23:39:40.681Z,24.6
2023-01-12T23:45:02.542Z,24.5
2023-01-12T23:50:24.296Z,24.3
2023-01-12T23:55:46.495Z,24.4
